createdAt,value
2017-04-19T00:00:50.187Z,63.52
2017-04-19T00:01:48.750Z,63.27
2017-04-19T00:02:47.461Z,63.45
2017-04-19T00:03:45.989Z,64.11
2017-04-19T00:04:44.527Z,64.39
2017-04-19T00:05:43.099Z,64.09
2017-04-19T00:06:41.607Z,64.14
2017-04-19T00:07:40.443Z,64.07
2017-04-19T00:08:38.980Z,64.36
2017-04-19T00:09:37.504Z,63.92
2017-04-19T00:10:36.012Z,63.52
2017-04-19T00:11:34.504Z,62.10
2017-04-19T00:12:33.035Z,62.33
2017-04-19T00:13:31.576Z,62.83
2017-04-19T00:14:30.115Z,63.42
2017-04-19T00:15:28.649Z,64.12
2017-04-19T00:16:27.191Z,64.22
2017-04-19T00:17:25.710Z,64.51
2017-04-19T00:18:24.245Z,63.34
2017-04-19T00:19:22.783Z,63.46
2017-04-19T00:20:21.331Z,63.69
2017-04-19T00:21:19.851Z,63.59
2017-04-19T00:22:18.359Z,63.67
2017-04-19T00:23:16.897Z,63.44
2017-04-19T00:24:15.815Z,62.90
2017-04-19T00:25:14.354Z,63.01
2017-04-19T00:26:12.860Z,61.75
2017-04-19T00:27:11.394Z,62.13
2017-04-19T00:28:09.965Z,62.34
2017-04-19T00:29:08.483Z,62.78
2017-04-19T00:30:07.035Z,63.16
2017-04-19T00:31:05.577Z,62.41
2017-04-19T00:32:04.150Z,61.66
2017-04-19T00:33:02.679Z,60.85
2017-04-19T00:34:01.187Z,61.14
2017-04-19T00:34:59.704Z,62.17
2017-04-19T00:35:58.395Z,61.43
2017-04-19T00:36:56.924Z,62.39
2017-04-19T00:37:55.416Z,62.23
2017-04-19T00:38:53.933Z,61.42
2017-04-19T00:39:52.447Z,61.12
2017-04-19T00:40:50.937Z,60.85
2017-04-19T00:41:49.839Z,61.08
2017-04-19T00:42:48.339Z,61.88
2017-04-19T00:43:46.840Z,61.78
2017-04-19T00:44:45.362Z,62.50
2017-04-19T00:45:43.867Z,62.47
2017-04-19T00:46:42.434Z,62.80
2017-04-19T00:47:40.951Z,62.49
2017-04-19T00:48:39.415Z,61.80
2017-04-19T00:49:37.919Z,62.00
2017-04-19T00:50:36.415Z,62.49
2017-04-19T00:51:34.905Z,63.15
2017-04-19T00:52:33.806Z,62.08
2017-04-19T00:53:32.298Z,61.88
2017-04-19T00:54:30.814Z,62.00
2017-04-19T00:55:29.324Z,61.68
2017-04-19T00:56:27.856Z,62.29
2017-04-19T00:57:26.399Z,62.60
2017-04-19T00:58:25.371Z,62.49
2017-04-19T00:59:23.867Z,62.62
2017-04-19T01:00:22.495Z,62.14
2017-04-19T01:01:21.102Z,62.62
2017-04-19T01:02:19.679Z,62.41
2017-04-19T01:03:18.219Z,62.59
2017-04-19T01:04:16.748Z,62.60
2017-04-19T01:05:15.230Z,62.93
2017-04-19T01:06:13.731Z,62.70
2017-04-19T01:07:12.265Z,62.42
2017-04-19T01:08:10.754Z,62.53
2017-04-19T01:09:09.758Z,61.78
2017-04-19T01:10:08.259Z,62.02
2017-04-19T01:11:06.769Z,61.86
2017-04-19T01:12:05.303Z,62.12
2017-04-19T01:13:03.813Z,61.52
2017-04-19T01:14:02.399Z,61.48
2017-04-19T01:15:00.928Z,61.33
2017-04-19T01:15:59.542Z,61.51
2017-04-19T01:16:58.108Z,60.63
2017-04-19T01:17:56.583Z,59.87
2017-04-19T01:18:55.096Z,60.75
2017-04-19T01:19:53.979Z,60.75
2017-04-19T01:20:52.462Z,60.73
2017-04-19T01:21:50.935Z,60.77
2017-04-19T01:22:49.443Z,60.82
2017-04-19T01:23:48.001Z,60.76
2017-04-19T01:24:46.511Z,60.74
2017-04-19T01:25:45.027Z,60.56
2017-04-19T01:26:43.552Z,60.26
2017-04-19T01:27:42.319Z,61.00
2017-04-19T01:28:40.831Z,60.39
2017-04-19T01:29:39.353Z,60.51
2017-04-19T01:30:37.926Z,60.48
2017-04-19T01:31:36.516Z,60.23
2017-04-19T01:32:35.068Z,60.50
2017-04-19T01:33:33.782Z,60.86
2017-04-19T01:34:32.278Z,61.03
2017-04-19T01:35:30.791Z,60.33
2017-04-19T01:36:29.333Z,60.78
2017-04-19T01:37:27.851Z,61.07
2017-04-19T01:38:26.359Z,61.09
2017-04-19T01:39:24.875Z,61.55
2017-04-19T01:40:23.367Z,60.55
2017-04-19T01:41:21.906Z,60.64
2017-04-19T01:42:20.476Z,60.54
2017-04-19T01:43:19.084Z,60.56
2017-04-19T01:44:17.760Z,60.52
2017-04-19T01:45:16.316Z,60.45
2017-04-19T01:46:14.903Z,60.30
2017-04-19T01:47:13.907Z,60.26
2017-04-19T01:48:12.400Z,60.46
2017-04-19T01:49:11.032Z,60.62
2017-04-19T01:50:09.594Z,60.82
2017-04-19T01:51:08.107Z,60.80
2017-04-19T01:52:06.640Z,59.14
2017-04-19T01:53:05.570Z,58.94
2017-04-19T01:54:04.080Z,59.26
2017-04-19T01:55:02.651Z,59.92
2017-04-19T01:56:01.122Z,60.30
2017-04-19T01:56:59.620Z,60.56
2017-04-19T01:57:58.114Z,59.95
2017-04-19T01:58:56.988Z,60.37
2017-04-19T01:59:55.542Z,60.18
2017-04-19T02:00:54.079Z,59.95
2017-04-19T02:01:52.575Z,60.15
2017-04-19T02:02:51.083Z,60.10
2017-04-19T02:03:49.607Z,60.99
2017-04-19T02:04:48.155Z,60.35
2017-04-19T02:05:51.838Z,60.56
2017-04-19T02:06:54.515Z,60.68
2017-04-19T02:07:53.079Z,60.50
2017-04-19T02:08:51.621Z,60.25
2017-04-19T02:09:50.160Z,60.29
2017-04-19T02:10:48.680Z,60.01
2017-04-19T02:11:47.219Z,60.45
2017-04-19T02:12:45.795Z,61.07
2017-04-19T02:13:44.324Z,60.43
2017-04-19T02:14:42.850Z,60.16
2017-04-19T02:15:41.374Z,60.07
2017-04-19T02:16:39.883Z,59.99
2017-04-19T02:17:38.411Z,60.01
2017-04-19T02:18:36.955Z,59.62
2017-04-19T02:19:35.503Z,58.74
2017-04-19T02:20:34.071Z,59.80
2017-04-19T02:21:32.584Z,60.68
2017-04-19T02:22:31.227Z,60.81
2017-04-19T02:23:29.728Z,60.18
2017-04-19T02:24:28.247Z,59.51
2017-04-19T02:25:27.164Z,60.31
2017-04-19T02:26:25.654Z,59.89
2017-04-19T02:27:24.215Z,59.90
2017-04-19T02:28:22.746Z,60.17
2017-04-19T02:29:21.256Z,60.54
2017-04-19T02:30:19.836Z,59.71
2017-04-19T02:31:18.431Z,59.87
2017-04-19T02:32:16.988Z,59.88
2017-04-19T02:33:15.627Z,60.01
2017-04-19T02:34:14.123Z,60.11
2017-04-19T02:35:12.620Z,59.85
2017-04-19T02:36:11.155Z,60.05
2017-04-19T02:37:09.839Z,59.70
2017-04-19T02:38:08.342Z,60.57
2017-04-19T02:39:07.002Z,60.21
2017-04-19T02:40:05.549Z,60.67
2017-04-19T02:41:04.138Z,61.07
2017-04-19T02:42:02.683Z,60.71
2017-04-19T02:43:01.199Z,61.03
2017-04-19T02:43:59.775Z,60.61
2017-04-19T02:44:58.290Z,61.00
2017-04-19T02:45:56.834Z,61.15
2017-04-19T02:46:55.320Z,61.21
2017-04-19T02:47:53.898Z,61.12
2017-04-19T02:48:52.418Z,61.07
2017-04-19T02:49:50.908Z,61.49
2017-04-19T02:50:49.847Z,61.18
2017-04-19T02:51:48.383Z,61.13
2017-04-19T02:52:46.868Z,61.60
2017-04-19T02:53:45.350Z,62.02
2017-04-19T02:54:43.959Z,61.77
2017-04-19T02:55:42.448Z,61.63
2017-04-19T02:56:40.983Z,62.03
2017-04-19T02:57:39.478Z,61.94
2017-04-19T02:58:37.975Z,62.08
2017-04-19T02:59:36.486Z,61.88
2017-04-19T03:00:34.999Z,61.83
2017-04-19T03:01:33.936Z,61.56
2017-04-19T03:02:32.435Z,62.11
2017-04-19T03:03:30.950Z,63.29
2017-04-19T03:04:29.516Z,63.11
2017-04-19T03:05:28.100Z,63.18
2017-04-19T03:06:26.690Z,61.92
2017-04-19T03:07:25.379Z,62.67
2017-04-19T03:08:23.927Z,63.56
2017-04-19T03:09:22.475Z,64.02
2017-04-19T03:10:20.954Z,63.76
2017-04-19T03:11:19.468Z,63.15
2017-04-19T03:12:17.980Z,62.82
2017-04-19T03:13:16.918Z,62.68
2017-04-19T03:14:15.408Z,62.40
2017-04-19T03:15:13.891Z,63.20
2017-04-19T03:16:12.387Z,63.38
2017-04-19T03:17:10.882Z,63.53
2017-04-19T03:18:09.459Z,63.71
2017-04-19T03:19:08.292Z,63.55
2017-04-19T03:20:06.806Z,64.28
2017-04-19T03:21:05.448Z,63.26
2017-04-19T03:22:04.067Z,63.93
2017-04-19T03:23:02.674Z,64.20
2017-04-19T03:24:01.191Z,65.14
2017-04-19T03:24:59.722Z,64.23
2017-04-19T03:25:58.268Z,64.55
2017-04-19T03:26:56.758Z,64.00
2017-04-19T03:27:55.337Z,64.29
2017-04-19T03:28:53.892Z,64.44
2017-04-19T03:29:52.755Z,64.98
2017-04-19T03:30:51.278Z,64.84
2017-04-19T03:31:49.796Z,65.40
2017-04-19T03:32:48.324Z,64.93
2017-04-19T03:33:46.895Z,64.34
2017-04-19T03:34:45.447Z,65.37
2017-04-19T03:35:43.998Z,65.46
2017-04-19T03:36:42.516Z,65.97
2017-04-19T03:37:41.007Z,66.24
2017-04-19T03:38:39.706Z,66.28
2017-04-19T03:39:38.198Z,66.78
2017-04-19T03:40:36.723Z,66.45
2017-04-19T03:41:35.209Z,66.51
2017-04-19T03:42:33.704Z,65.94
2017-04-19T03:43:32.280Z,64.93
2017-04-19T03:44:30.895Z,65.85
2017-04-19T03:45:29.704Z,65.38
2017-04-19T03:46:28.222Z,65.50
2017-04-19T03:47:26.747Z,66.28
2017-04-19T03:48:25.327Z,66.46
2017-04-19T03:49:23.828Z,65.93
2017-04-19T03:50:22.355Z,66.18
2017-04-19T03:51:21.259Z,65.27
2017-04-19T03:52:19.813Z,65.42
2017-04-19T03:53:18.350Z,64.88
2017-04-19T03:54:16.844Z,65.25
2017-04-19T03:55:15.340Z,64.37
2017-04-19T03:56:13.847Z,64.91
2017-04-19T03:57:12.484Z,65.35
2017-04-19T03:58:11.127Z,65.35
2017-04-19T03:59:09.633Z,65.34
2017-04-19T04:00:08.247Z,64.60
2017-04-19T04:01:06.754Z,64.42
2017-04-19T04:02:05.668Z,65.25
2017-04-19T04:03:04.196Z,66.53
2017-04-19T04:04:02.718Z,66.05
2017-04-19T04:05:01.226Z,65.57
2017-04-19T04:05:59.719Z,64.60
2017-04-19T04:06:58.224Z,65.01
2017-04-19T04:07:56.791Z,66.22
2017-04-19T04:08:55.291Z,65.87
2017-04-19T04:09:53.808Z,65.49
2017-04-19T04:10:52.361Z,64.86
2017-04-19T04:11:50.883Z,65.05
2017-04-19T04:12:49.761Z,65.70
2017-04-19T04:13:48.315Z,66.39
2017-04-19T04:14:47.010Z,65.75
2017-04-19T04:15:45.502Z,66.03
2017-04-19T04:16:47.080Z,65.71
2017-04-19T04:17:45.622Z,65.57
2017-04-19T04:18:44.518Z,65.35
2017-04-19T04:19:43.082Z,64.90
2017-04-19T04:20:41.586Z,65.18
2017-04-19T04:21:40.096Z,65.87
2017-04-19T04:22:38.568Z,65.56
2017-04-19T04:23:37.067Z,65.24
2017-04-19T04:24:35.818Z,65.25
2017-04-19T04:25:34.323Z,65.09
2017-04-19T04:26:32.815Z,65.62
2017-04-19T04:27:31.347Z,65.68
2017-04-19T04:28:29.947Z,66.36
2017-04-19T04:29:28.436Z,66.87
2017-04-19T04:30:27.299Z,66.73
2017-04-19T04:31:25.847Z,66.66
2017-04-19T04:32:24.441Z,66.78
2017-04-19T04:33:22.927Z,66.51
2017-04-19T04:34:21.435Z,65.59
2017-04-19T04:35:20.064Z,65.60
2017-04-19T04:36:18.619Z,65.58
2017-04-19T04:37:17.106Z,66.48
2017-04-19T04:38:15.602Z,66.85
2017-04-19T04:39:14.119Z,66.83
2017-04-19T04:40:12.656Z,66.70
2017-04-19T04:41:11.239Z,67.08
2017-04-19T04:42:09.767Z,67.01
2017-04-19T04:43:08.287Z,67.18
2017-04-19T04:44:06.862Z,67.28
2017-04-19T04:45:05.408Z,66.23
2017-04-19T04:46:04.051Z,66.09
2017-04-19T04:47:02.897Z,66.50
2017-04-19T04:48:01.450Z,67.28
2017-04-19T04:49:00.111Z,66.98
2017-04-19T04:49:58.667Z,67.23
2017-04-19T04:50:57.190Z,67.82
2017-04-19T04:51:55.699Z,67.63
2017-04-19T04:52:54.252Z,67.63
2017-04-19T04:53:52.755Z,67.51
2017-04-19T04:54:51.415Z,67.29
2017-04-19T04:55:50.152Z,67.11
2017-04-19T04:56:48.674Z,66.96
2017-04-19T04:57:47.187Z,65.91
2017-04-19T04:58:45.716Z,65.86
2017-04-19T04:59:44.278Z,66.00
2017-04-19T05:00:42.781Z,66.57
2017-04-19T05:01:41.340Z,67.06
2017-04-19T05:02:39.846Z,66.73
2017-04-19T05:03:38.389Z,66.21
2017-04-19T05:04:36.923Z,65.94
2017-04-19T05:05:35.526Z,66.35
2017-04-19T05:06:34.096Z,65.77
2017-04-19T05:07:32.611Z,66.26
2017-04-19T05:08:31.124Z,66.77
2017-04-19T05:09:29.631Z,66.79
2017-04-19T05:10:28.226Z,66.74
2017-04-19T05:11:27.020Z,66.77
2017-04-19T05:12:25.552Z,66.77
2017-04-19T05:13:24.189Z,67.22
2017-04-19T05:14:22.706Z,66.86
2017-04-19T05:15:21.229Z,66.42
2017-04-19T05:16:19.729Z,67.47
2017-04-19T05:17:18.347Z,67.61
2017-04-19T05:18:16.950Z,67.72
2017-04-19T05:19:15.487Z,67.02
2017-04-19T05:20:13.984Z,66.36
2017-04-19T05:21:12.492Z,65.81
2017-04-19T05:22:11.204Z,66.40
2017-04-19T05:23:09.823Z,65.84
2017-04-19T05:24:08.352Z,66.25
2017-04-19T05:25:06.909Z,66.19
2017-04-19T05:26:05.482Z,65.92
2017-04-19T05:27:03.995Z,65.62
2017-04-19T05:28:02.759Z,65.39
2017-04-19T05:29:01.420Z,64.91
2017-04-19T05:29:59.907Z,64.61
2017-04-19T05:30:58.410Z,65.36
2017-04-19T05:31:57.039Z,65.86
2017-04-19T05:32:55.583Z,65.93
2017-04-19T05:33:54.262Z,66.33
2017-04-19T05:34:52.756Z,65.86
2017-04-19T05:35:51.257Z,65.45
2017-04-19T05:36:49.771Z,65.63
2017-04-19T05:37:48.318Z,65.69
2017-04-19T05:38:46.923Z,65.99
2017-04-19T05:39:45.555Z,66.44
2017-04-19T05:40:44.051Z,65.85
2017-04-19T05:41:42.587Z,66.14
2017-04-19T05:42:41.151Z,65.87
2017-04-19T05:43:39.662Z,66.13
2017-04-19T05:44:38.585Z,64.34
2017-04-19T05:45:37.071Z,63.88
2017-04-19T05:46:35.643Z,64.17
2017-04-19T05:47:34.301Z,64.67
2017-04-19T05:48:32.901Z,64.77
2017-04-19T05:49:31.414Z,64.66
2017-04-19T05:50:29.974Z,64.10
2017-04-19T05:51:28.507Z,64.10
2017-04-19T05:52:27.025Z,63.97
2017-04-19T05:53:25.616Z,63.85
2017-04-19T05:54:24.350Z,63.38
2017-04-19T05:55:23.075Z,63.21
2017-04-19T05:56:21.582Z,63.73
2017-04-19T05:57:20.105Z,63.44
2017-04-19T05:58:18.782Z,63.59
2017-04-19T05:59:17.287Z,63.55
2017-04-19T06:00:15.816Z,63.82
2017-04-19T06:01:14.411Z,63.16
2017-04-19T06:02:12.935Z,63.48
2017-04-19T06:03:11.445Z,62.89
2017-04-19T06:04:10.063Z,63.54
2017-04-19T06:05:08.595Z,62.91
2017-04-19T06:06:07.604Z,63.82
2017-04-19T06:07:06.139Z,63.20
2017-04-19T06:08:04.811Z,62.81
2017-04-19T06:09:03.430Z,62.85
2017-04-19T06:10:01.943Z,62.89
2017-04-19T06:11:00.447Z,63.48
2017-04-19T06:11:59.007Z,63.41
2017-04-19T06:12:57.560Z,63.70
2017-04-19T06:13:56.064Z,63.63
2017-04-19T06:14:54.587Z,63.30
2017-04-19T06:15:53.092Z,63.07
2017-04-19T06:16:51.798Z,62.56
2017-04-19T06:17:50.327Z,62.55
2017-04-19T06:18:48.831Z,62.23
2017-04-19T06:19:47.320Z,61.93
2017-04-19T06:20:45.794Z,62.31
2017-04-19T06:21:44.354Z,62.28
2017-04-19T06:22:42.904Z,62.48
2017-04-19T06:23:41.439Z,62.18
2017-04-19T06:24:39.955Z,61.60
2017-04-19T06:25:38.673Z,61.73
2017-04-19T06:26:37.210Z,61.64
2017-04-19T06:27:36.007Z,61.82
2017-04-19T06:28:34.525Z,61.78
2017-04-19T06:29:33.059Z,61.71
2017-04-19T06:30:31.765Z,61.96
2017-04-19T06:31:30.399Z,61.22
2017-04-19T06:32:29.003Z,60.36
2017-04-19T06:33:27.575Z,60.55
2017-04-19T06:34:26.099Z,60.67
2017-04-19T06:35:24.604Z,60.30
2017-04-19T06:36:23.183Z,60.66
2017-04-19T06:37:21.715Z,60.51
2017-04-19T06:38:20.406Z,60.17
2017-04-19T06:39:19.002Z,60.56
2017-04-19T06:40:17.576Z,60.13
2017-04-19T06:41:16.066Z,60.91
2017-04-19T06:42:14.575Z,60.41
2017-04-19T06:43:13.200Z,60.40
2017-04-19T06:44:11.818Z,59.48
2017-04-19T06:45:10.356Z,59.63
2017-04-19T06:46:08.858Z,60.36
2017-04-19T06:47:07.757Z,60.24
2017-04-19T06:48:06.278Z,60.76
2017-04-19T06:49:04.807Z,60.35
2017-04-19T06:50:03.402Z,60.21
2017-04-19T06:51:01.939Z,60.32
2017-04-19T06:52:00.452Z,60.59
2017-04-19T06:52:59.411Z,60.06
2017-04-19T06:53:57.937Z,60.25
2017-04-19T06:54:56.493Z,59.94
2017-04-19T06:55:55.331Z,59.15
2017-04-19T06:56:53.839Z,59.29
2017-04-19T06:57:52.375Z,59.17
2017-04-19T06:58:50.963Z,58.28
2017-04-19T06:59:49.538Z,58.34
2017-04-19T07:00:48.148Z,58.49
2017-04-19T07:01:46.978Z,57.74
2017-04-19T07:02:49.186Z,57.40
2017-04-19T07:03:47.769Z,57.38
2017-04-19T07:04:46.287Z,57.54
2017-04-19T07:05:44.910Z,56.72
2017-04-19T07:06:43.498Z,57.06
2017-04-19T07:07:42.141Z,57.67
2017-04-19T07:08:40.647Z,57.29
2017-04-19T07:09:39.163Z,57.71
2017-04-19T07:10:37.688Z,57.26
2017-04-19T07:11:36.400Z,57.18
2017-04-19T07:12:34.935Z,57.23
2017-04-19T07:13:33.447Z,57.11
2017-04-19T07:14:32.403Z,56.92
2017-04-19T07:15:30.927Z,56.62
2017-04-19T07:16:29.466Z,55.78
2017-04-19T07:17:28.251Z,55.37
2017-04-19T07:18:26.786Z,56.20
2017-04-19T07:19:25.359Z,55.03
2017-04-19T07:20:23.863Z,55.32
2017-04-19T07:21:22.380Z,55.63
2017-04-19T07:22:20.919Z,55.83
2017-04-19T07:23:19.511Z,56.68
2017-04-19T07:24:18.015Z,56.02
2017-04-19T07:25:16.574Z,56.05
2017-04-19T07:26:15.095Z,56.31
2017-04-19T07:27:13.586Z,56.27
2017-04-19T07:28:12.334Z,55.49
2017-04-19T07:29:10.900Z,55.69
2017-04-19T07:30:09.452Z,55.55
2017-04-19T07:31:07.988Z,55.13
2017-04-19T07:32:06.546Z,54.58
2017-04-19T07:33:05.063Z,54.91
2017-04-19T07:34:03.687Z,54.42
2017-04-19T07:35:02.320Z,54.67
2017-04-19T07:36:00.895Z,55.01
2017-04-19T07:36:59.451Z,55.41
2017-04-19T07:37:57.969Z,54.93
2017-04-19T07:38:56.635Z,54.50
2017-04-19T07:39:55.155Z,54.16
2017-04-19T07:40:53.659Z,54.27
2017-04-19T07:41:52.167Z,53.92
2017-04-19T07:42:50.703Z,53.77
2017-04-19T07:43:49.214Z,54.22
2017-04-19T07:44:47.826Z,53.86
2017-04-19T07:45:46.439Z,54.26
2017-04-19T07:46:45.075Z,54.29
2017-04-19T07:47:43.751Z,53.49
2017-04-19T07:48:42.290Z,53.45
2017-04-19T07:49:41.081Z,52.38
2017-04-19T07:50:39.631Z,52.98
2017-04-19T07:51:38.244Z,52.86
2017-04-19T07:52:36.800Z,53.15
2017-04-19T07:53:35.275Z,53.01
2017-04-19T07:54:33.839Z,55.17
2017-04-19T07:55:32.418Z,53.18
2017-04-19T07:56:30.962Z,53.80
2017-04-19T07:57:29.524Z,55.19
2017-04-19T07:58:28.032Z,53.38
2017-04-19T07:59:26.546Z,53.70
2017-04-19T08:00:25.356Z,55.06
2017-04-19T08:01:23.888Z,53.75
2017-04-19T08:02:22.419Z,53.80
2017-04-19T08:03:21.024Z,52.86
2017-04-19T08:04:19.554Z,52.47
2017-04-19T08:05:18.087Z,52.97
2017-04-19T08:06:16.667Z,52.69
2017-04-19T08:07:15.179Z,53.31
2017-04-19T08:08:13.731Z,53.27
2017-04-19T08:09:12.227Z,50.04
2017-04-19T08:10:10.731Z,50.83
2017-04-19T08:11:09.543Z,52.93
2017-04-19T08:12:08.100Z,50.45
2017-04-19T08:13:06.651Z,50.09
2017-04-19T08:14:05.143Z,49.83
2017-04-19T08:15:03.626Z,47.89
2017-04-19T08:16:02.143Z,47.88
2017-04-19T08:17:00.679Z,47.93
2017-04-19T08:17:59.288Z,47.60
2017-04-19T08:18:57.781Z,47.83
2017-04-19T08:19:56.330Z,48.17
2017-04-19T08:20:54.854Z,49.23
2017-04-19T08:21:53.450Z,47.14
2017-04-19T08:22:52.011Z,47.99
2017-04-19T08:23:50.564Z,47.82
2017-04-19T08:24:49.098Z,47.23
2017-04-19T08:25:47.695Z,46.56
2017-04-19T08:26:46.279Z,46.32
2017-04-19T08:27:44.810Z,47.26
2017-04-19T08:28:43.308Z,47.41
2017-04-19T08:29:41.807Z,46.49
2017-04-19T08:30:40.289Z,46.48
2017-04-19T08:31:38.796Z,46.47
2017-04-19T08:32:37.291Z,46.49
2017-04-19T08:33:36.004Z,45.90
2017-04-19T08:34:34.528Z,46.08
2017-04-19T08:35:33.167Z,46.72
2017-04-19T08:36:31.793Z,45.19
2017-04-19T08:37:30.282Z,45.51
2017-04-19T08:38:29.079Z,45.48
2017-04-19T08:39:27.571Z,45.10
2017-04-19T08:40:26.104Z,45.46
2017-04-19T08:41:24.670Z,45.38
2017-04-19T08:42:23.175Z,45.19
2017-04-19T08:43:21.679Z,45.70
2017-04-19T08:44:20.506Z,46.21
2017-04-19T08:45:18.990Z,46.70
2017-04-19T08:46:17.574Z,45.35
2017-04-19T08:47:16.040Z,44.70
2017-04-19T08:48:14.574Z,45.08
2017-04-19T08:49:13.190Z,45.80
2017-04-19T08:50:11.799Z,44.42
2017-04-19T08:51:10.315Z,43.14
2017-04-19T08:52:08.875Z,41.57
2017-04-19T08:53:07.431Z,41.70
2017-04-19T08:54:05.966Z,42.14
2017-04-19T08:55:04.814Z,41.70
2017-04-19T08:56:03.387Z,42.13
2017-04-19T08:57:01.940Z,42.81
2017-04-19T08:58:00.451Z,42.28
2017-04-19T08:58:58.956Z,42.74
2017-04-19T08:59:57.460Z,41.37
2017-04-19T09:00:56.009Z,41.83
2017-04-19T09:01:54.539Z,42.62
2017-04-19T09:02:53.165Z,42.10
2017-04-19T09:03:51.674Z,41.91
2017-04-19T09:04:50.182Z,41.95
2017-04-19T09:05:48.906Z,41.90
2017-04-19T09:06:47.415Z,41.53
2017-04-19T09:07:45.915Z,41.12
2017-04-19T09:08:44.430Z,40.64
2017-04-19T09:09:43.042Z,41.07
2017-04-19T09:10:41.662Z,40.14
2017-04-19T09:11:40.209Z,40.64
2017-04-19T09:12:38.695Z,41.05
2017-04-19T09:13:37.389Z,41.16
2017-04-19T09:14:35.880Z,41.95
2017-04-19T09:15:34.431Z,42.54
2017-04-19T09:16:33.209Z,41.84
2017-04-19T09:17:31.828Z,41.96
2017-04-19T09:18:30.315Z,41.49
2017-04-19T09:19:28.799Z,41.78
2017-04-19T09:20:27.356Z,41.99
2017-04-19T09:21:25.896Z,41.72
2017-04-19T09:22:24.466Z,42.04
2017-04-19T09:23:23.059Z,40.98
2017-04-19T09:24:21.809Z,41.43
2017-04-19T09:25:20.399Z,40.66
2017-04-19T09:26:19.006Z,40.50
2017-04-19T09:27:17.568Z,41.06
2017-04-19T09:28:16.078Z,41.93
2017-04-19T09:29:14.612Z,40.94
2017-04-19T09:30:13.154Z,40.70
2017-04-19T09:31:11.988Z,40.76
2017-04-19T09:32:10.779Z,40.16
2017-04-19T09:33:09.362Z,40.52
2017-04-19T09:34:07.919Z,40.96
2017-04-19T09:35:06.423Z,41.09
2017-04-19T09:36:04.914Z,40.73
2017-04-19T09:37:03.535Z,40.58
2017-04-19T09:38:02.104Z,40.48
2017-04-19T09:39:00.700Z,40.99
2017-04-19T09:39:59.207Z,41.50
2017-04-19T09:40:57.812Z,41.31
2017-04-19T09:41:56.367Z,40.92
2017-04-19T09:42:55.221Z,40.82
2017-04-19T09:43:53.740Z,40.02
2017-04-19T09:44:52.314Z,40.35
2017-04-19T09:45:51.031Z,40.44
2017-04-19T09:46:49.622Z,39.70
2017-04-19T09:47:48.200Z,39.24
2017-04-19T09:48:46.751Z,39.57
2017-04-19T09:49:45.408Z,39.39
2017-04-19T09:50:44.052Z,39.33
2017-04-19T09:51:42.677Z,39.68
2017-04-19T09:52:41.191Z,39.15
2017-04-19T09:53:39.799Z,38.17
2017-04-19T09:54:38.619Z,38.72
2017-04-19T09:55:37.178Z,38.40
2017-04-19T09:56:35.794Z,39.32
2017-04-19T09:57:34.531Z,39.87
2017-04-19T09:58:33.269Z,39.89
2017-04-19T09:59:31.795Z,40.12
2017-04-19T10:00:30.629Z,41.33
2017-04-19T10:01:29.210Z,39.32
2017-04-19T10:02:27.832Z,40.15
2017-04-19T10:03:26.376Z,40.78
2017-04-19T10:04:24.907Z,40.15
2017-04-19T10:05:23.394Z,39.78
2017-04-19T10:06:21.978Z,39.85
2017-04-19T10:07:20.708Z,39.50
2017-04-19T10:08:19.418Z,39.19
2017-04-19T10:09:17.966Z,39.85
2017-04-19T10:10:16.491Z,40.11
2017-04-19T10:11:15.347Z,40.38
2017-04-19T10:12:13.862Z,39.79
2017-04-19T10:13:13.255Z,40.00
2017-04-19T10:14:11.791Z,38.83
2017-04-19T10:15:10.327Z,38.44
2017-04-19T10:16:08.888Z,38.95
2017-04-19T10:17:07.531Z,38.82
2017-04-19T10:18:06.113Z,37.94
2017-04-19T10:19:04.635Z,37.50
2017-04-19T10:20:03.160Z,38.64
2017-04-19T10:21:01.659Z,38.28
2017-04-19T10:22:00.478Z,38.38
2017-04-19T10:22:59.097Z,37.83
2017-04-19T10:23:57.731Z,38.39
2017-04-19T10:24:56.260Z,36.62
2017-04-19T10:25:54.925Z,37.42
2017-04-19T10:26:53.448Z,38.03
2017-04-19T10:27:52.031Z,37.97
2017-04-19T10:28:50.541Z,38.03
2017-04-19T10:29:49.079Z,38.26
2017-04-19T10:30:47.660Z,37.14
2017-04-19T10:31:46.307Z,36.84
2017-04-19T10:32:45.124Z,36.83
2017-04-19T10:33:43.658Z,37.85
2017-04-19T10:34:42.179Z,38.53
2017-04-19T10:35:40.784Z,38.35
2017-04-19T10:36:39.438Z,38.71
2017-04-19T10:37:37.948Z,37.75
2017-04-19T10:38:36.580Z,38.20
2017-04-19T10:39:35.213Z,37.60
2017-04-19T10:40:34.219Z,37.90
2017-04-19T10:41:32.743Z,36.76
2017-04-19T10:42:32.277Z,35.96
2017-04-19T10:43:30.840Z,35.37
2017-04-19T10:44:29.343Z,34.39
2017-04-19T10:45:27.857Z,34.52
2017-04-19T10:46:26.385Z,34.20
2017-04-19T10:47:24.895Z,33.64
2017-04-19T10:48:23.567Z,34.22
2017-04-19T10:49:22.084Z,32.79
2017-04-19T10:50:20.595Z,33.77
2017-04-19T10:51:19.212Z,34.25
2017-04-19T10:52:17.816Z,33.73
2017-04-19T10:53:16.406Z,33.30
2017-04-19T10:54:15.129Z,32.69
2017-04-19T10:55:13.785Z,32.23
2017-04-19T10:56:12.347Z,33.64
2017-04-19T10:57:11.077Z,33.78
2017-04-19T10:58:09.791Z,33.26
2017-04-19T10:59:08.590Z,32.97
2017-04-19T11:00:07.160Z,32.64
2017-04-19T11:01:05.674Z,34.25
2017-04-19T11:02:04.315Z,33.95
2017-04-19T11:03:02.850Z,33.11
2017-04-19T11:04:01.499Z,33.52
2017-04-19T11:05:00.083Z,33.90
2017-04-19T11:05:58.565Z,32.41
2017-04-19T11:06:57.108Z,30.61
2017-04-19T11:07:55.610Z,30.72
2017-04-19T11:08:54.126Z,31.16
2017-04-19T11:09:52.895Z,30.86
2017-04-19T11:10:51.411Z,31.10
2017-04-19T11:11:49.931Z,31.96
2017-04-19T11:12:48.436Z,32.62
2017-04-19T11:13:47.047Z,33.12
2017-04-19T11:14:45.669Z,33.72
2017-04-19T11:15:44.303Z,34.08
2017-04-19T11:16:42.894Z,33.72
2017-04-19T11:17:41.396Z,33.07
2017-04-19T11:18:39.894Z,33.36
2017-04-19T11:19:38.517Z,34.29
2017-04-19T11:20:37.329Z,34.92
2017-04-19T11:21:35.956Z,34.75
2017-04-19T11:22:34.618Z,34.39
2017-04-19T11:23:33.390Z,33.77
2017-04-19T11:24:31.984Z,34.10
2017-04-19T11:25:30.519Z,34.50
2017-04-19T11:26:29.240Z,35.95
2017-04-19T11:27:27.849Z,34.96
2017-04-19T11:28:26.429Z,35.19
2017-04-19T11:29:24.938Z,35.46
2017-04-19T11:30:23.470Z,34.90
2017-04-19T11:31:22.013Z,34.42
2017-04-19T11:32:20.885Z,34.72
2017-04-19T11:33:19.450Z,34.44
2017-04-19T11:34:17.975Z,34.74
2017-04-19T11:35:16.710Z,34.54
2017-04-19T11:36:15.335Z,34.66
2017-04-19T11:37:13.858Z,34.49
2017-04-19T11:38:12.526Z,34.54
2017-04-19T11:39:11.031Z,34.47
2017-04-19T11:40:09.542Z,34.19
2017-04-19T11:41:08.090Z,33.72
2017-04-19T11:42:06.600Z,34.34
2017-04-19T11:43:05.147Z,34.65
2017-04-19T11:44:03.716Z,34.32
2017-04-19T11:45:02.222Z,33.46
2017-04-19T11:46:00.783Z,33.58
2017-04-19T11:46:59.320Z,33.02
2017-04-19T11:47:57.847Z,34.51
2017-04-19T11:48:56.629Z,32.98
2017-04-19T11:49:55.710Z,33.40
2017-04-19T11:50:54.243Z,34.52
2017-04-19T11:51:52.846Z,34.18
2017-04-19T11:52:51.452Z,34.18
2017-04-19T11:53:50.003Z,34.26
2017-04-19T11:54:48.616Z,34.22
2017-04-19T11:55:47.162Z,34.90
2017-04-19T11:56:45.752Z,35.26
2017-04-19T11:57:44.258Z,34.82
2017-04-19T11:58:42.774Z,34.13
2017-04-19T11:59:41.647Z,32.83
2017-04-19T12:00:40.190Z,32.11
2017-04-19T12:01:38.795Z,31.23
2017-04-19T12:02:37.370Z,30.82
2017-04-19T12:03:35.967Z,31.37
2017-04-19T12:04:34.653Z,30.40
2017-04-19T12:05:33.362Z,30.30
2017-04-19T12:06:31.913Z,30.13
2017-04-19T12:07:30.508Z,30.36
2017-04-19T12:08:29.256Z,30.75
2017-04-19T12:09:27.871Z,30.85
2017-04-19T12:10:26.775Z,31.01
2017-04-19T12:11:25.442Z,30.69
2017-04-19T12:12:24.019Z,30.80
2017-04-19T12:13:22.580Z,31.29
2017-04-19T12:14:21.118Z,32.08
2017-04-19T12:15:19.702Z,31.11
2017-04-19T12:16:18.252Z,31.03
2017-04-19T12:17:16.779Z,32.01
2017-04-19T12:18:15.421Z,31.49
2017-04-19T12:19:14.024Z,31.08
2017-04-19T12:20:12.544Z,30.90
2017-04-19T12:21:11.324Z,29.87
2017-04-19T12:22:09.871Z,28.70
2017-04-19T12:23:08.401Z,28.02
2017-04-19T12:24:06.935Z,26.00
2017-04-19T12:25:05.529Z,26.33
2017-04-19T12:26:04.082Z,26.12
2017-04-19T12:27:02.707Z,26.77
2017-04-19T12:28:01.218Z,26.05
2017-04-19T12:28:59.824Z,26.11
2017-04-19T12:29:58.380Z,25.14
2017-04-19T12:30:56.910Z,24.44
2017-04-19T12:31:55.895Z,22.93
2017-04-19T12:32:54.451Z,23.29
2017-04-19T12:33:52.974Z,22.35
2017-04-19T12:34:51.518Z,22.36